Austin Reinauer — WCX8055 — position and weather

sailwx.info

Track history (hours):
 
Tides and Currents Weather Stations Pressure Air Temp Water Temp Dewpoint Dewpoint Depression Visibility Wind Speed Wind Dir Waves Ship Positions

Austin Reinauer

Owner: REINAUER TRANSPORTATION CO, LP, STATEN ISLAND, NY. More information available from US FCC via Universal Licensing System and Coast Guard Vessel Documentation Center.

Last reported at 2015-Apr-19 22:28 UTC. Time now 2015-Apr-19 23:01 UTC.
Position N 40°38' W 074°12'.

Length 33 m; draft 6.7 m.

Type: Ship (hazmat cat B). MMSI: 366739920.

Date/timePositionNaut miles runAvg speedWind from/ knotsBaromVisibWave heightAir tempDewpointWater temp
2015-Apr-19 22:28N 40°38' W 074°12'0 0.0
2015-Apr-19 21:31N 40°38' W 074°12'0 0.0
2015-Apr-19 20:31N 40°38' W 074°12'0 0.0
2015-Apr-19 19:31N 40°38' W 074°12'0 0.0
2015-Apr-19 18:31N 40°38' W 074°12'0 0.0
2015-Apr-19 17:31N 40°38' W 074°12'0 0.0
2015-Apr-19 16:34N 40°38' W 074°12'0 0.0
2015-Apr-19 15:24N 40°38' W 074°12'0 0.0
2015-Apr-19 14:33N 40°38' W 074°12'0 0.0
2015-Apr-19 13:33N 40°38' W 074°12'0 0.0
2015-Apr-19 12:30N 40°38' W 074°12'0 0.0
2015-Apr-19 11:33N 40°38' W 074°12'0 0.0
2015-Apr-19 10:33N 40°38' W 074°12'0 0.0
2015-Apr-19 09:33N 40°38' W 074°12'0 0.0
2015-Apr-19 08:30N 40°38' W 074°12'0 0.0
2015-Apr-19 07:33N 40°38' W 074°12'0 0.0
2015-Apr-19 06:30N 40°38' W 074°12'0 0.0
2015-Apr-19 05:33N 40°38' W 074°12'0 0.0
2015-Apr-19 04:33N 40°38' W 074°12'0 0.0
2015-Apr-19 03:21N 40°38' W 074°12'0 0.0
2015-Apr-19 02:33N 40°38' W 074°12'0 0.0
2015-Apr-19 01:33N 40°38' W 074°12'0 0.0
2015-Apr-19 00:33N 40°38' W 074°12'0 0.0
2015-Apr-18 23:33N 40°38' W 074°12'5 5.5
2015-Apr-18 22:33N 40°39' W 074°05'1110.5
2015-Apr-18 21:33N 40°30' W 073°57'10 9.9
2015-Apr-18 20:31N 40°31' W 073°44'9 9.7
2015-Apr-18 19:32N 40°30' W 073°31'1010.0
2015-Apr-18 18:31N 40°33' W 073°18'1010.1
2015-Apr-18 17:31N 40°36' W 073°06'1010.0
2015-Apr-18 16:33N 40°39' W 072°54'1010.0
2015-Apr-18 15:34N 40°43' W 072°42'10 9.9
2015-Apr-18 14:33N 40°47' W 072°30'1010.0
2015-Apr-18 13:33N 40°51' W 072°18'1010.0
2015-Apr-18 12:33N 40°55' W 072°06'10 9.9
2015-Apr-18 11:33N 40°59' W 071°54'9 9.4
2015-Apr-18 10:33N 41°03' W 071°42'10 9.5
2015-Apr-18 09:33N 41°07' W 071°31'1010.0
2015-Apr-18 08:33N 41°13' W 071°20'1010.3
2015-Apr-18 07:33N 41°20' W 071°11'1010.4
2015-Apr-18 06:33N 41°27' W 071°00'1110.8
2015-Apr-18 05:33N 41°32' W 070°48'1210.5
2015-Apr-18 04:25N 41°42' W 070°40'44 1.7
2015-Apr-17 03:05N 42°23' W 071°03'8 4.8
2015-Apr-17 01:20N 42°23' W 070°52'48 6.6
2015-Apr-16 18:05N 41°36' W 070°43'5 9.5
2015-Apr-16 17:33N 41°32' W 070°47'10 9.5
2015-Apr-16 16:34N 41°28' W 070°59'9 9.0
2015-Apr-16 15:34N 41°23' W 071°09'9 9.5
2015-Apr-16 14:34N 41°25' W 071°21'10 9.6
2015-Apr-16 13:33N 41°34' W 071°19'10 9.6
2015-Apr-16 12:33N 41°44' W 071°22'3 3.4
2015-Apr-16 11:33N 41°47' W 071°22'0 0.0
2015-Apr-16 10:33N 41°47' W 071°22'0 0.0
2015-Apr-16 09:21N 41°47' W 071°22'0 0.0
2015-Apr-16 08:33N 41°47' W 071°22'0 0.0
2015-Apr-16 07:33N 41°47' W 071°22'0 0.0
2015-Apr-16 06:33N 41°47' W 071°22'0 0.0
2015-Apr-16 05:33N 41°47' W 071°22'0 0.0
2015-Apr-16 04:33N 41°47' W 071°22'0 0.0
2015-Apr-16 03:33N 41°47' W 071°22'0 0.0
2015-Apr-16 02:32N 41°47' W 071°22'0 0.0
2015-Apr-16 01:32N 41°47' W 071°22'0 0.0
2015-Apr-16 00:32N 41°47' W 071°22'0 0.0
2015-Apr-15 23:32N 41°47' W 071°22'0 0.0
2015-Apr-15 22:32N 41°47' W 071°22'0 0.0
2015-Apr-15 21:26N 41°47' W 071°22'0 0.0
2015-Apr-15 20:26N 41°47' W 071°22'2 2.5
2015-Apr-15 19:33N 41°45' W 071°22'4 3.5
2015-Apr-15 18:24N 41°42' W 071°19'5 5.2
2015-Apr-15 17:23N 41°36' W 071°18'6 6.9
2015-Apr-15 16:33N 41°31' W 071°20'7 7.2
2015-Apr-15 15:33N 41°24' W 071°24'8 7.9
2015-Apr-15 14:33N 41°18' W 071°30'9 9.4
2015-Apr-15 13:34N 41°17' W 071°43'9 9.1
2015-Apr-15 12:33N 41°15' W 071°55'8 7.9
2015-Apr-15 11:34N 41°15' W 072°05'7 7.4
2015-Apr-15 10:33N 41°13' W 072°15'7 7.2
2015-Apr-15 09:33N 41°10' W 072°23'7 7.3
2015-Apr-15 08:33N 41°08' W 072°33'9 8.6
2015-Apr-15 07:34N 41°10' W 072°44'8 7.4
2015-Apr-15 06:28N 41°13' W 072°54'0 0.3
2015-Apr-15 05:33N 41°12' W 072°54'4 3.5
2015-Apr-15 04:33N 41°10' W 072°58'8 8.3
2015-Apr-15 03:33N 41°05' W 073°07'9 9.1
2015-Apr-15 02:33N 41°02' W 073°18'9 8.9
2015-Apr-15 01:31N 40°58' W 073°29'9 8.8
2015-Apr-15 00:29N 40°54' W 073°40'9 7.9
2015-Apr-14 23:20N 40°48' W 073°49'6 7.0
2015-Apr-14 22:32N 40°47' W 073°56'8 8.6
2015-Apr-14 21:33N 40°40' W 074°03'2 1.9
2015-Apr-14 20:32N 40°39' W 074°05'0 0.0
2015-Apr-14 19:32N 40°39' W 074°05'0 0.0
2015-Apr-14 18:32N 40°39' W 074°05'0 0.0
2015-Apr-14 17:32N 40°39' W 074°05'0 0.0
2015-Apr-14 16:32N 40°39' W 074°05'0 0.0
2015-Apr-14 15:32N 40°39' W 074°05'0 0.0
2015-Apr-14 14:32N 40°39' W 074°05'0 0.0
2015-Apr-14 13:32N 40°39' W 074°05'0 0.0
2015-Apr-14 12:32N 40°39' W 074°05'0 0.0
2015-Apr-14 11:32N 40°39' W 074°05'0 0.0
2015-Apr-14 10:32N 40°39' W 074°05'0 0.0
2015-Apr-14 09:32N 40°39' W 074°05'0 0.0
2015-Apr-14 08:32N 40°39' W 074°05'0 0.0
2015-Apr-14 07:32N 40°39' W 074°05'0 0.0
2015-Apr-14 06:31N 40°39' W 074°05'0 0.0
2015-Apr-14 05:31N 40°39' W 074°05'0 0.0
2015-Apr-14 04:31N 40°39' W 074°05'0 0.0
2015-Apr-14 03:31N 40°39' W 074°05'0 0.0
2015-Apr-14 02:31N 40°39' W 074°05'2 1.7
2015-Apr-14 01:25N 40°39' W 074°07'0 0.3
2015-Apr-14 00:29N 40°38' W 074°08'0 0.0
2015-Apr-13 23:32N 40°38' W 074°08'0 0.0
2015-Apr-13 22:31N 40°38' W 074°08'2 1.9
2015-Apr-13 21:24N 40°39' W 074°05'0 0.1
2015-Apr-13 20:33N 40°39' W 074°05'0 0.1
2015-Apr-13 19:32N 40°39' W 074°05'2 1.6
2015-Apr-13 18:31N 40°40' W 074°03'0 0.2
2015-Apr-13 17:31N 40°39' W 074°03'1 1.2
2015-Apr-13 16:33N 40°40' W 074°02'2 1.8
2015-Apr-13 15:33N 40°39' W 074°04'4 4.0
2015-Apr-13 14:26N 40°38' W 074°10'0 0.0
2015-Apr-13 13:29N 40°38' W 074°10'0 0.0
2015-Apr-13 12:32N 40°38' W 074°10'0 0.0
2015-Apr-13 11:32N 40°38' W 074°10'0 0.0
2015-Apr-13 10:26N 40°38' W 074°10'0 0.0
2015-Apr-13 09:32N 40°38' W 074°10'0 0.0
2015-Apr-13 08:32N 40°38' W 074°10'0 0.0
2015-Apr-13 07:32N 40°38' W 074°10'0 0.0
2015-Apr-13 06:32N 40°38' W 074°10'0 0.0
2015-Apr-13 05:32N 40°38' W 074°10'0 0.0
2015-Apr-13 04:32N 40°38' W 074°10'0 0.0
2015-Apr-13 03:32N 40°38' W 074°10'0 0.0
2015-Apr-13 02:32N 40°38' W 074°10'0 0.0
2015-Apr-13 01:29N 40°38' W 074°10'0 0.0
2015-Apr-13 00:32N 40°38' W 074°10'0 0.0
2015-Apr-12 23:32N 40°38' W 074°10'0 0.0
2015-Apr-12 22:32N 40°38' W 074°10'0 0.0
2015-Apr-12 21:29N 40°38' W 074°10'0 0.0
2015-Apr-12 20:32N 40°38' W 074°10'0 0.0
2015-Apr-12 19:32N 40°38' W 074°10'0 0.0
2015-Apr-12 18:32N 40°38' W 074°10'0 0.0
2015-Apr-12 17:32N 40°38' W 074°10'0 0.0
2015-Apr-12 16:32N 40°38' W 074°10'16781597.4
2015-Apr-12 15:29N 12°41' W 074°10'16781765.0
2015-Apr-12 14:31N 40°38' W 074°10'0 0.0
2015-Apr-12 13:31N 40°38' W 074°10'0 0.0
2015-Apr-12 12:31N 40°38' W 074°10'2 2.0
2015-Apr-12 11:33N 40°38' W 074°12'2 2.5
2015-Apr-12 10:33N 40°36' W 074°12'0 0.0
2015-Apr-12 03:30N 40°35' W 074°12'1 0.1
2015-Apr-11 21:30N 40°36' W 074°12'1 0.1
2015-Apr-11 16:05N 40°35' W 074°12'0 0.0
2015-Apr-11 15:30N 40°35' W 074°12'0 0.0
2015-Apr-11 14:33N 40°35' W 074°12'0 0.0
2015-Apr-11 13:33N 40°35' W 074°12'0 0.0
2015-Apr-11 12:33N 40°35' W 074°12'0 0.0
2015-Apr-11 11:27N 40°35' W 074°12'0 0.0
2015-Apr-11 10:33N 40°35' W 074°12'1 0.8
2015-Apr-11 09:32N 40°36' W 074°12'1 0.4
2015-Apr-11 07:28N 40°35' W 074°12'1 0.8
2015-Apr-11 06:04N 40°36' W 074°12'3 6.2
2015-Apr-11 05:33N 40°39' W 074°09'2 1.9
2015-Apr-11 04:26N 40°39' W 074°07'0 0.0
2015-Apr-11 03:26N 40°39' W 074°07'0 0.0
2015-Apr-11 02:23N 40°39' W 074°07'0 0.0
2015-Apr-11 01:26N 40°39' W 074°07'0 0.0
2015-Apr-11 00:32N 40°39' W 074°07'0 0.0
2015-Apr-10 23:29N 40°39' W 074°07'0 0.0
2015-Apr-10 22:23N 40°39' W 074°07'0 0.0
2015-Apr-10 21:29N 40°39' W 074°07'0 0.0
2015-Apr-10 20:29N 40°39' W 074°07'0 0.0
2015-Apr-10 19:20N 40°39' W 074°07'0 0.0
2015-Apr-10 18:32N 40°39' W 074°07'0 0.0
2015-Apr-10 17:32N 40°39' W 074°07'0 0.0
2015-Apr-10 16:29N 40°39' W 074°07'1 1.0
2015-Apr-10 15:28N 40°38' W 074°08'0 0.0
2015-Apr-10 14:31N 40°38' W 074°08'0 0.0
2015-Apr-10 13:31N 40°38' W 074°08'0 0.0
2015-Apr-10 12:31N 40°38' W 074°08'1 1.0
2015-Apr-10 11:33N 40°39' W 074°07'0 0.0
2015-Apr-10 10:33N 40°39' W 074°07'0 0.0
2015-Apr-10 09:21N 40°39' W 074°07'0 0.0
2015-Apr-10 08:27N 40°39' W 074°07'0 0.0
2015-Apr-10 07:33N 40°39' W 074°07'0 0.0
2015-Apr-10 06:27N 40°39' W 074°07'0 0.0
2015-Apr-10 05:27N 40°39' W 074°07'0 0.0
2015-Apr-10 04:30N 40°39' W 074°07'0 0.5
2015-Apr-10 03:33N 40°39' W 074°06'3 2.9
2015-Apr-10 02:32N 40°40' W 074°02'0 0.2
2015-Apr-10 01:33N 40°40' W 074°02'0 0.0
2015-Apr-10 00:32N 40°40' W 074°02'0 0.0
2015-Apr-09 23:33N 40°40' W 074°02'0 0.0
2015-Apr-09 22:33N 40°40' W 074°02'  
Track history (hours):
 
Tides and Currents Weather Stations Pressure Air Temp Water Temp Dewpoint Dewpoint Depression Visibility Wind Speed Wind Dir Waves Ship Positions

Austin Reinauer

Owner: REINAUER TRANSPORTATION CO, LP, STATEN ISLAND, NY. More information available from US FCC via Universal Licensing System and Coast Guard Vessel Documentation Center.

Last reported at 2015-Apr-19 22:28 UTC. Time now 2015-Apr-19 23:01 UTC.
Position N 40°38' W 074°12'.

Length 33 m; draft 6.7 m.

Type: Ship (hazmat cat B). MMSI: 366739920.

Date/timePositionNaut miles runAvg speedWind from/ knotsBaromVisibWave heightAir tempDewpointWater temp
2015-Apr-19 22:28N 40°38' W 074°12'0 0.0
2015-Apr-19 21:31N 40°38' W 074°12'0 0.0
2015-Apr-19 20:31N 40°38' W 074°12'0 0.0
2015-Apr-19 19:31N 40°38' W 074°12'0 0.0
2015-Apr-19 18:31N 40°38' W 074°12'0 0.0
2015-Apr-19 17:31N 40°38' W 074°12'0 0.0
2015-Apr-19 16:34N 40°38' W 074°12'0 0.0
2015-Apr-19 15:24N 40°38' W 074°12'0 0.0
2015-Apr-19 14:33N 40°38' W 074°12'0 0.0
2015-Apr-19 13:33N 40°38' W 074°12'0 0.0
2015-Apr-19 12:30N 40°38' W 074°12'0 0.0
2015-Apr-19 11:33N 40°38' W 074°12'0 0.0
2015-Apr-19 10:33N 40°38' W 074°12'0 0.0
2015-Apr-19 09:33N 40°38' W 074°12'0 0.0
2015-Apr-19 08:30N 40°38' W 074°12'0 0.0
2015-Apr-19 07:33N 40°38' W 074°12'0 0.0
2015-Apr-19 06:30N 40°38' W 074°12'0 0.0
2015-Apr-19 05:33N 40°38' W 074°12'0 0.0
2015-Apr-19 04:33N 40°38' W 074°12'0 0.0
2015-Apr-19 03:21N 40°38' W 074°12'0 0.0
2015-Apr-19 02:33N 40°38' W 074°12'0 0.0
2015-Apr-19 01:33N 40°38' W 074°12'0 0.0
2015-Apr-19 00:33N 40°38' W 074°12'0 0.0
2015-Apr-18 23:33N 40°38' W 074°12'5 5.5
2015-Apr-18 22:33N 40°39' W 074°05'1110.5
2015-Apr-18 21:33N 40°30' W 073°57'10 9.9
2015-Apr-18 20:31N 40°31' W 073°44'9 9.7
2015-Apr-18 19:32N 40°30' W 073°31'1010.0
2015-Apr-18 18:31N 40°33' W 073°18'1010.1
2015-Apr-18 17:31N 40°36' W 073°06'1010.0
2015-Apr-18 16:33N 40°39' W 072°54'1010.0
2015-Apr-18 15:34N 40°43' W 072°42'10 9.9
2015-Apr-18 14:33N 40°47' W 072°30'1010.0
2015-Apr-18 13:33N 40°51' W 072°18'1010.0
2015-Apr-18 12:33N 40°55' W 072°06'10 9.9
2015-Apr-18 11:33N 40°59' W 071°54'9 9.4
2015-Apr-18 10:33N 41°03' W 071°42'10 9.5
2015-Apr-18 09:33N 41°07' W 071°31'1010.0
2015-Apr-18 08:33N 41°13' W 071°20'1010.3
2015-Apr-18 07:33N 41°20' W 071°11'1010.4
2015-Apr-18 06:33N 41°27' W 071°00'1110.8
2015-Apr-18 05:33N 41°32' W 070°48'1210.5
2015-Apr-18 04:25N 41°42' W 070°40'44 1.7
2015-Apr-17 03:05N 42°23' W 071°03'8 4.8
2015-Apr-17 01:20N 42°23' W 070°52'48 6.6
2015-Apr-16 18:05N 41°36' W 070°43'5 9.5
2015-Apr-16 17:33N 41°32' W 070°47'10 9.5
2015-Apr-16 16:34N 41°28' W 070°59'9 9.0
2015-Apr-16 15:34N 41°23' W 071°09'9 9.5
2015-Apr-16 14:34N 41°25' W 071°21'10 9.6
2015-Apr-16 13:33N 41°34' W 071°19'10 9.6
2015-Apr-16 12:33N 41°44' W 071°22'3 3.4
2015-Apr-16 11:33N 41°47' W 071°22'0 0.0
2015-Apr-16 10:33N 41°47' W 071°22'0 0.0
2015-Apr-16 09:21N 41°47' W 071°22'0 0.0
2015-Apr-16 08:33N 41°47' W 071°22'0 0.0
2015-Apr-16 07:33N 41°47' W 071°22'0 0.0
2015-Apr-16 06:33N 41°47' W 071°22'0 0.0
2015-Apr-16 05:33N 41°47' W 071°22'0 0.0
2015-Apr-16 04:33N 41°47' W 071°22'0 0.0
2015-Apr-16 03:33N 41°47' W 071°22'0 0.0
2015-Apr-16 02:32N 41°47' W 071°22'0 0.0
2015-Apr-16 01:32N 41°47' W 071°22'0 0.0
2015-Apr-16 00:32N 41°47' W 071°22'0 0.0
2015-Apr-15 23:32N 41°47' W 071°22'0 0.0
2015-Apr-15 22:32N 41°47' W 071°22'0 0.0
2015-Apr-15 21:26N 41°47' W 071°22'0 0.0
2015-Apr-15 20:26N 41°47' W 071°22'2 2.5
2015-Apr-15 19:33N 41°45' W 071°22'4 3.5
2015-Apr-15 18:24N 41°42' W 071°19'5 5.2
2015-Apr-15 17:23N 41°36' W 071°18'6 6.9
2015-Apr-15 16:33N 41°31' W 071°20'7 7.2
2015-Apr-15 15:33N 41°24' W 071°24'8 7.9
2015-Apr-15 14:33N 41°18' W 071°30'9 9.4
2015-Apr-15 13:34N 41°17' W 071°43'9 9.1
2015-Apr-15 12:33N 41°15' W 071°55'8 7.9
2015-Apr-15 11:34N 41°15' W 072°05'7 7.4
2015-Apr-15 10:33N 41°13' W 072°15'7 7.2
2015-Apr-15 09:33N 41°10' W 072°23'7 7.3
2015-Apr-15 08:33N 41°08' W 072°33'9 8.6
2015-Apr-15 07:34N 41°10' W 072°44'8 7.4
2015-Apr-15 06:28N 41°13' W 072°54'0 0.3
2015-Apr-15 05:33N 41°12' W 072°54'4 3.5
2015-Apr-15 04:33N 41°10' W 072°58'8 8.3
2015-Apr-15 03:33N 41°05' W 073°07'9 9.1
2015-Apr-15 02:33N 41°02' W 073°18'9 8.9
2015-Apr-15 01:31N 40°58' W 073°29'9 8.8
2015-Apr-15 00:29N 40°54' W 073°40'9 7.9
2015-Apr-14 23:20N 40°48' W 073°49'6 7.0
2015-Apr-14 22:32N 40°47' W 073°56'8 8.6
2015-Apr-14 21:33N 40°40' W 074°03'2 1.9
2015-Apr-14 20:32N 40°39' W 074°05'0 0.0
2015-Apr-14 19:32N 40°39' W 074°05'0 0.0
2015-Apr-14 18:32N 40°39' W 074°05'0 0.0
2015-Apr-14 17:32N 40°39' W 074°05'0 0.0
2015-Apr-14 16:32N 40°39' W 074°05'0 0.0
2015-Apr-14 15:32N 40°39' W 074°05'0 0.0
2015-Apr-14 14:32N 40°39' W 074°05'0 0.0
2015-Apr-14 13:32N 40°39' W 074°05'0 0.0
2015-Apr-14 12:32N 40°39' W 074°05'0 0.0
2015-Apr-14 11:32N 40°39' W 074°05'0 0.0
2015-Apr-14 10:32N 40°39' W 074°05'0 0.0
2015-Apr-14 09:32N 40°39' W 074°05'0 0.0
2015-Apr-14 08:32N 40°39' W 074°05'0 0.0
2015-Apr-14 07:32N 40°39' W 074°05'0 0.0
2015-Apr-14 06:31N 40°39' W 074°05'0 0.0
2015-Apr-14 05:31N 40°39' W 074°05'0 0.0
2015-Apr-14 04:31N 40°39' W 074°05'0 0.0
2015-Apr-14 03:31N 40°39' W 074°05'0 0.0
2015-Apr-14 02:31N 40°39' W 074°05'2 1.7
2015-Apr-14 01:25N 40°39' W 074°07'0 0.3
2015-Apr-14 00:29N 40°38' W 074°08'0 0.0
2015-Apr-13 23:32N 40°38' W 074°08'0 0.0
2015-Apr-13 22:31N 40°38' W 074°08'2 1.9
2015-Apr-13 21:24N 40°39' W 074°05'0 0.1
2015-Apr-13 20:33N 40°39' W 074°05'0 0.1
2015-Apr-13 19:32N 40°39' W 074°05'2 1.6
2015-Apr-13 18:31N 40°40' W 074°03'0 0.2
2015-Apr-13 17:31N 40°39' W 074°03'1 1.2
2015-Apr-13 16:33N 40°40' W 074°02'2 1.8
2015-Apr-13 15:33N 40°39' W 074°04'4 4.0
2015-Apr-13 14:26N 40°38' W 074°10'0 0.0
2015-Apr-13 13:29N 40°38' W 074°10'0 0.0
2015-Apr-13 12:32N 40°38' W 074°10'0 0.0
2015-Apr-13 11:32N 40°38' W 074°10'0 0.0
2015-Apr-13 10:26N 40°38' W 074°10'0 0.0
2015-Apr-13 09:32N 40°38' W 074°10'0 0.0
2015-Apr-13 08:32N 40°38' W 074°10'0 0.0
2015-Apr-13 07:32N 40°38' W 074°10'0 0.0
2015-Apr-13 06:32N 40°38' W 074°10'0 0.0
2015-Apr-13 05:32N 40°38' W 074°10'0 0.0
2015-Apr-13 04:32N 40°38' W 074°10'0 0.0
2015-Apr-13 03:32N 40°38' W 074°10'0 0.0
2015-Apr-13 02:32N 40°38' W 074°10'0 0.0
2015-Apr-13 01:29N 40°38' W 074°10'0 0.0
2015-Apr-13 00:32N 40°38' W 074°10'0 0.0
2015-Apr-12 23:32N 40°38' W 074°10'0 0.0
2015-Apr-12 22:32N 40°38' W 074°10'0 0.0
2015-Apr-12 21:29N 40°38' W 074°10'0 0.0
2015-Apr-12 20:32N 40°38' W 074°10'0 0.0
2015-Apr-12 19:32N 40°38' W 074°10'0 0.0
2015-Apr-12 18:32N 40°38' W 074°10'0 0.0
2015-Apr-12 17:32N 40°38' W 074°10'0 0.0
2015-Apr-12 16:32N 40°38' W 074°10'16781597.4
2015-Apr-12 15:29N 12°41' W 074°10'16781765.0
2015-Apr-12 14:31N 40°38' W 074°10'0 0.0
2015-Apr-12 13:31N 40°38' W 074°10'0 0.0
2015-Apr-12 12:31N 40°38' W 074°10'2 2.0
2015-Apr-12 11:33N 40°38' W 074°12'2 2.5
2015-Apr-12 10:33N 40°36' W 074°12'0 0.0
2015-Apr-12 03:30N 40°35' W 074°12'1 0.1
2015-Apr-11 21:30N 40°36' W 074°12'1 0.1
2015-Apr-11 16:05N 40°35' W 074°12'0 0.0
2015-Apr-11 15:30N 40°35' W 074°12'0 0.0
2015-Apr-11 14:33N 40°35' W 074°12'0 0.0
2015-Apr-11 13:33N 40°35' W 074°12'0 0.0
2015-Apr-11 12:33N 40°35' W 074°12'0 0.0
2015-Apr-11 11:27N 40°35' W 074°12'0 0.0
2015-Apr-11 10:33N 40°35' W 074°12'1 0.8
2015-Apr-11 09:32N 40°36' W 074°12'1 0.4
2015-Apr-11 07:28N 40°35' W 074°12'1 0.8
2015-Apr-11 06:04N 40°36' W 074°12'3 6.2
2015-Apr-11 05:33N 40°39' W 074°09'2 1.9
2015-Apr-11 04:26N 40°39' W 074°07'0 0.0
2015-Apr-11 03:26N 40°39' W 074°07'0 0.0
2015-Apr-11 02:23N 40°39' W 074°07'0 0.0
2015-Apr-11 01:26N 40°39' W 074°07'0 0.0
2015-Apr-11 00:32N 40°39' W 074°07'0 0.0
2015-Apr-10 23:29N 40°39' W 074°07'0 0.0
2015-Apr-10 22:23N 40°39' W 074°07'0 0.0
2015-Apr-10 21:29N 40°39' W 074°07'0 0.0
2015-Apr-10 20:29N 40°39' W 074°07'0 0.0
2015-Apr-10 19:20N 40°39' W 074°07'0 0.0
2015-Apr-10 18:32N 40°39' W 074°07'0 0.0
2015-Apr-10 17:32N 40°39' W 074°07'0 0.0
2015-Apr-10 16:29N 40°39' W 074°07'1 1.0
2015-Apr-10 15:28N 40°38' W 074°08'0 0.0
2015-Apr-10 14:31N 40°38' W 074°08'0 0.0
2015-Apr-10 13:31N 40°38' W 074°08'0 0.0
2015-Apr-10 12:31N 40°38' W 074°08'1 1.0
2015-Apr-10 11:33N 40°39' W 074°07'0 0.0
2015-Apr-10 10:33N 40°39' W 074°07'0 0.0
2015-Apr-10 09:21N 40°39' W 074°07'0 0.0
2015-Apr-10 08:27N 40°39' W 074°07'0 0.0
2015-Apr-10 07:33N 40°39' W 074°07'0 0.0
2015-Apr-10 06:27N 40°39' W 074°07'0 0.0
2015-Apr-10 05:27N 40°39' W 074°07'0 0.0
2015-Apr-10 04:30N 40°39' W 074°07'0 0.5
2015-Apr-10 03:33N 40°39' W 074°06'3 2.9
2015-Apr-10 02:32N 40°40' W 074°02'0 0.2
2015-Apr-10 01:33N 40°40' W 074°02'0 0.0
2015-Apr-10 00:32N 40°40' W 074°02'0 0.0
2015-Apr-09 23:33N 40°40' W 074°02'0 0.0
2015-Apr-09 22:33N 40°40' W 074°02'  

Dump ship's entire track history